PWSweather.com
Personal Weather Stations
Station Observations
KCTCOLEB1
Sandy Brook, Colebrook, CT 06021

Sandy BrookColebrook, CT 06021

Lat: 42.0018, Lon: -73.0825

Elevation: 935

Station Type: Davis Vantage Pro2 + Solar + UV

Latest ConditionsUpdated 4:10:00 PM EDT Saturday, May 30, 2015
Currently Today's Max Today's Min Today's Average
Temperature 80.8°F27.1°C 82.9°F28.3°C 53.8°F12.1°C 66.0°F18.9°C
Dew Point 67.0°F19.4°C 69.9°F21.1°C 52.4°F11.3°C 60.4°F15.8°C
Winds 1.9 mph E3.1 kmh E 4.2 mph E6.8 kmh E - 0.8 mph 1.3 kmh
Wind Gusts 6.0 mph9.7 kmh 9.0 mph14.5 kmh - -
Humidity 63% 98% 60% 84%
Pressure 30.03 in1016.9 mb 30.20 in1022.7 mb 30.03 in1016.9 mb -
Hour Temp Dew Point Humidity Winds Wind Gusts Pressure Precip Precip Rate Daily Precip Total
04:10 PM 80.8°F27.1°C 67.0°F19.4°C 63% 1.9 mph E3.1 kmh E 6.0 mph9.7 kmh 30.03 in1016.9 mb - 0.00 in0.0 mm 0.00 in0.0 mm
04:00 PM 81.0°F27.2°C 67.7°F19.8°C 64% 1.6 mph SW2.6 kmh SW 5.0 mph8.0 kmh 30.03 in1016.9 mb - 0.00 in0.0 mm 0.00 in0.0 mm
03:50 PM 81.0°F27.2°C 67.2°F19.6°C 63% 2.8 mph NNE4.5 kmh NNE 4.0 mph6.4 kmh 30.03 in1016.9 mb - 0.00 in0.0 mm 0.00 in0.0 mm
03:40 PM 80.7°F27.1°C 67.4°F19.7°C 64% 0.8 mph NNE1.3 kmh NNE 2.0 mph3.2 kmh 30.03 in1016.9 mb - 0.00 in0.0 mm 0.00 in0.0 mm
03:30 PM 80.3°F26.8°C 68.3°F20.2°C 67% 0.6 mph E1.0 kmh E 1.0 mph1.6 kmh 30.04 in1017.3 mb - 0.00 in0.0 mm 0.00 in0.0 mm
03:20 PM 79.6°F26.4°C 67.2°F19.6°C 66% 0.5 mph ENE0.8 kmh ENE 1.0 mph1.6 kmh 30.04 in1017.3 mb - 0.00 in0.0 mm 0.00 in0.0 mm
03:10 PM 79.3°F26.3°C 67.8°F19.9°C 68% 1.7 mph E2.7 kmh E 3.0 mph4.8 kmh 30.05 in1017.6 mb - 0.00 in0.0 mm 0.00 in0.0 mm
03:00 PM 79.9°F26.6°C 67.9°F19.9°C 67% 0.6 mph SE1.0 kmh SE 1.0 mph1.6 kmh 30.05 in1017.6 mb - 0.00 in0.0 mm 0.00 in0.0 mm
02:50 PM 80.4°F26.9°C 68.0°F20.0°C 66% 0.9 mph ENE1.4 kmh ENE 2.0 mph3.2 kmh 30.06 in1017.9 mb - 0.00 in0.0 mm 0.00 in0.0 mm
02:40 PM 81.5°F27.5°C 67.7°F19.8°C 63% 1.7 mph E2.7 kmh E 3.0 mph4.8 kmh 30.06 in1017.9 mb - 0.00 in0.0 mm 0.00 in0.0 mm
02:30 PM 82.4°F28.0°C 67.1°F19.5°C 60% 1.7 mph NE2.7 kmh NE 2.0 mph3.2 kmh 30.06 in1017.9 mb - 0.00 in0.0 mm 0.00 in0.0 mm
02:20 PM 82.9°F28.3°C 69.5°F20.8°C 64% 1.3 mph ENE2.1 kmh ENE 3.0 mph4.8 kmh 30.06 in1017.9 mb - 0.00 in0.0 mm 0.00 in0.0 mm
02:10 PM 81.8°F27.7°C 68.9°F20.5°C 65% 0.7 mph SW1.1 kmh SW 1.0 mph1.6 kmh 30.07 in1018.3 mb - 0.00 in0.0 mm 0.00 in0.0 mm
02:00 PM 81.0°F27.2°C 69.9°F21.1°C 69% 1.2 mph NE1.9 kmh NE 2.0 mph3.2 kmh 30.07 in1018.3 mb - 0.00 in0.0 mm 0.00 in0.0 mm
01:50 PM 80.0°F26.7°C 68.5°F20.3°C 68% 1.6 mph NW2.6 kmh NW 2.0 mph3.2 kmh 30.08 in1018.6 mb - 0.00 in0.0 mm 0.00 in0.0 mm
01:40 PM 79.5°F26.4°C 68.0°F20.0°C 68% 0.8 mph ESE1.3 kmh ESE 4.0 mph6.4 kmh 30.09 in1019.0 mb - 0.00 in0.0 mm 0.00 in0.0 mm
01:30 PM 79.2°F26.2°C 68.1°F20.1°C 69% 2.0 mph NNE3.2 kmh NNE 4.0 mph6.4 kmh 30.09 in1019.0 mb - 0.00 in0.0 mm 0.00 in0.0 mm
01:20 PM 79.3°F26.3°C 67.8°F19.9°C 68% 1.6 mph E2.6 kmh E 3.0 mph4.8 kmh 30.09 in1019.0 mb - 0.00 in0.0 mm 0.00 in0.0 mm
01:10 PM 78.8°F26.0°C 67.3°F19.6°C 68% 1.3 mph E2.1 kmh E 2.0 mph3.2 kmh 30.09 in1019.0 mb - 0.00 in0.0 mm 0.00 in0.0 mm
01:00 PM 78.1°F25.6°C 66.7°F19.3°C 68% 2.3 mph ENE3.7 kmh ENE 7.0 mph11.3 kmh 30.09 in1019.0 mb - 0.00 in0.0 mm 0.00 in0.0 mm
12:50 PM 78.0°F25.6°C 67.0°F19.4°C 69% 1.8 mph E2.9 kmh E 7.0 mph11.3 kmh 30.10 in1019.3 mb - 0.00 in0.0 mm 0.00 in0.0 mm
12:40 PM 78.5°F25.8°C 66.7°F19.3°C 67% 2.1 mph E3.4 kmh E 3.0 mph4.8 kmh 30.11 in1019.6 mb - 0.00 in0.0 mm 0.00 in0.0 mm
12:30 PM 78.8°F26.0°C 66.0°F18.9°C 65% 3.6 mph E5.8 kmh E 9.0 mph14.5 kmh 30.11 in1019.6 mb - 0.00 in0.0 mm 0.00 in0.0 mm
12:20 PM 78.7°F25.9°C 66.4°F19.1°C 66% 1.6 mph ENE2.6 kmh ENE 4.0 mph6.4 kmh 30.11 in1019.6 mb - 0.00 in0.0 mm 0.00 in0.0 mm
12:10 PM 78.1°F25.6°C 67.1°F19.5°C 69% 0.8 mph E1.3 kmh E 4.0 mph6.4 kmh 30.11 in1019.6 mb - 0.00 in0.0 mm 0.00 in0.0 mm
12:00 PM 78.2°F25.7°C 65.5°F18.6°C 65% 3.7 mph NE6.0 kmh NE 4.0 mph6.4 kmh 30.12 in1020.0 mb - 0.00 in0.0 mm 0.00 in0.0 mm
11:50 AM 78.5°F25.8°C 66.7°F19.3°C 67% 1.3 mph E2.1 kmh E 3.0 mph4.8 kmh 30.12 in1020.0 mb - 0.00 in0.0 mm 0.00 in0.0 mm
11:40 AM 79.0°F26.1°C 67.5°F19.7°C 68% 0.6 mph ENE1.0 kmh ENE 1.0 mph1.6 kmh 30.12 in1020.0 mb - 0.00 in0.0 mm 0.00 in0.0 mm
11:30 AM 78.8°F26.0°C 66.5°F19.2°C 66% 1.4 mph NE2.3 kmh NE 2.0 mph3.2 kmh 30.12 in1020.0 mb - 0.00 in0.0 mm 0.00 in0.0 mm
11:20 AM 78.3°F25.7°C 66.9°F19.4°C 68% 1.3 mph SE2.1 kmh SE 2.0 mph3.2 kmh 30.12 in1020.0 mb - 0.00 in0.0 mm 0.00 in0.0 mm
11:10 AM 77.6°F25.3°C 65.8°F18.8°C 67% 4.2 mph E6.8 kmh E 9.0 mph14.5 kmh 30.12 in1020.0 mb - 0.00 in0.0 mm 0.00 in0.0 mm
11:00 AM 76.8°F24.9°C 65.5°F18.6°C 68% 4.1 mph E6.6 kmh E 6.0 mph9.7 kmh 30.12 in1020.0 mb - 0.00 in0.0 mm 0.00 in0.0 mm
10:50 AM 77.2°F25.1°C 65.4°F18.6°C 67% 1.8 mph NE2.9 kmh NE 2.0 mph3.2 kmh 30.13 in1020.3 mb - 0.00 in0.0 mm 0.00 in0.0 mm
10:40 AM 77.3°F25.2°C 65.9°F18.8°C 68% 2.1 mph NE3.4 kmh NE 5.0 mph8.0 kmh 30.13 in1020.3 mb - 0.00 in0.0 mm 0.00 in0.0 mm
10:30 AM 76.6°F24.8°C 67.7°F19.8°C 74% 1.0 mph NE1.6 kmh NE 5.0 mph8.0 kmh 30.13 in1020.3 mb - 0.00 in0.0 mm 0.00 in0.0 mm
10:20 AM 75.5°F24.2°C 65.8°F18.8°C 72% 2.4 mph E3.9 kmh E 3.0 mph4.8 kmh 30.13 in1020.3 mb - 0.00 in0.0 mm 0.00 in0.0 mm
10:10 AM 74.6°F23.7°C 66.9°F19.4°C 77% 2.3 mph ESE3.7 kmh ESE 4.0 mph6.4 kmh 30.13 in1020.3 mb - 0.00 in0.0 mm 0.00 in0.0 mm
10:00 AM 73.3°F22.9°C 66.8°F19.3°C 80% 2.7 mph E4.3 kmh E 5.0 mph8.0 kmh 30.14 in1020.7 mb - 0.00 in0.0 mm 0.00 in0.0 mm
09:50 AM 72.3°F22.4°C 66.5°F19.2°C 82% 1.3 mph ENE2.1 kmh ENE 1.0 mph1.6 kmh 30.14 in1020.7 mb - 0.00 in0.0 mm 0.00 in0.0 mm
09:40 AM 71.3°F21.8°C 66.2°F19.0°C 84% 2.4 mph NE3.9 kmh NE 4.0 mph6.4 kmh 30.14 in1020.7 mb - 0.00 in0.0 mm 0.00 in0.0 mm
09:30 AM 70.6°F21.4°C 66.2°F19.0°C 86% 1.9 mph E3.1 kmh E 2.0 mph3.2 kmh 30.15 in1021.0 mb - 0.00 in0.0 mm 0.00 in0.0 mm
09:20 AM 69.2°F20.7°C 66.5°F19.2°C 91% 3.1 mph E5.0 kmh E 7.0 mph11.3 kmh 30.15 in1021.0 mb - 0.00 in0.0 mm 0.00 in0.0 mm
09:10 AM 67.0°F19.4°C 66.4°F19.1°C 98% 1.1 mph E1.8 kmh E 5.0 mph8.0 kmh 30.15 in1021.0 mb - 0.00 in0.0 mm 0.00 in0.0 mm
09:00 AM 64.9°F18.3°C 64.3°F17.9°C 98% 1.8 mph E2.9 kmh E 3.0 mph4.8 kmh 30.15 in1021.0 mb - 0.00 in0.0 mm 0.00 in0.0 mm
08:50 AM 63.5°F17.5°C 62.9°F17.2°C 98% 0.3 mph E0.5 kmh E 2.0 mph3.2 kmh 30.16 in1021.3 mb - 0.00 in0.0 mm 0.00 in0.0 mm
08:40 AM 61.5°F16.4°C 60.9°F16.1°C 98% 0.6 mph W1.0 kmh W 2.0 mph3.2 kmh 30.16 in1021.3 mb - 0.00 in0.0 mm 0.00 in0.0 mm
08:30 AM 60.6°F15.9°C 60.0°F15.6°C 98% Calm Calm -- 30.16 in1021.3 mb - 0.00 in0.0 mm 0.00 in0.0 mm
08:20 AM 60.0°F15.6°C 59.4°F15.2°C 98% Calm Calm -- 30.16 in1021.3 mb - 0.00 in0.0 mm 0.00 in0.0 mm
08:10 AM 59.4°F15.2°C 58.8°F14.9°C 98% 0.1 mph W0.2 kmh W -- 30.16 in1021.3 mb - 0.00 in0.0 mm 0.00 in0.0 mm
08:00 AM 58.6°F14.8°C 58.0°F14.4°C 98% Calm Calm -- 30.16 in1021.3 mb - 0.00 in0.0 mm 0.00 in0.0 mm
07:50 AM 58.1°F14.5°C 57.6°F14.2°C 98% Calm Calm -- 30.16 in1021.3 mb - 0.00 in0.0 mm 0.00 in0.0 mm
07:40 AM 57.7°F14.3°C 57.1°F13.9°C 98% Calm Calm -- 30.16 in1021.3 mb - 0.00 in0.0 mm 0.00 in0.0 mm
07:30 AM 57.2°F14.0°C 56.6°F13.7°C 98% 0.3 mph W0.5 kmh W 1.0 mph1.6 kmh 30.16 in1021.3 mb - 0.00 in0.0 mm 0.00 in0.0 mm
07:20 AM 56.5°F13.6°C 56.0°F13.3°C 98% Calm Calm -- 30.16 in1021.3 mb - 0.00 in0.0 mm 0.00 in0.0 mm
07:10 AM 56.1°F13.4°C 55.5°F13.1°C 98% Calm Calm -- 30.16 in1021.3 mb - 0.00 in0.0 mm 0.00 in0.0 mm
07:00 AM 55.6°F13.1°C 54.8°F12.7°C 97% Calm Calm -- 30.16 in1021.3 mb - 0.00 in0.0 mm 0.00 in0.0 mm
06:50 AM 55.1°F12.8°C 54.3°F12.4°C 97% Calm Calm -- 30.16 in1021.3 mb - 0.00 in0.0 mm 0.00 in0.0 mm
06:40 AM 54.6°F12.6°C 53.7°F12.1°C 97% Calm Calm -- 30.16 in1021.3 mb - 0.00 in0.0 mm 0.00 in0.0 mm
06:30 AM 54.1°F12.3°C 53.0°F11.7°C 96% Calm Calm -- 30.16 in1021.3 mb - 0.00 in0.0 mm 0.00 in0.0 mm
06:20 AM 53.9°F12.2°C 52.8°F11.6°C 96% Calm Calm -- 30.17 in1021.7 mb - 0.00 in0.0 mm 0.00 in0.0 mm
06:10 AM 53.8°F12.1°C 52.7°F11.5°C 96% Calm Calm -- 30.17 in1021.7 mb - 0.00 in0.0 mm 0.00 in0.0 mm
06:00 AM 53.8°F12.1°C 52.4°F11.3°C 95% Calm Calm -- 30.17 in1021.7 mb - 0.00 in0.0 mm 0.00 in0.0 mm
05:50 AM 53.8°F12.1°C 52.4°F11.3°C 95% Calm Calm -- 30.16 in1021.3 mb - 0.00 in0.0 mm 0.00 in0.0 mm
05:40 AM 53.9°F12.2°C 52.5°F11.4°C 95% Calm Calm -- 30.16 in1021.3 mb - 0.00 in0.0 mm 0.00 in0.0 mm
05:30 AM 53.9°F12.2°C 52.5°F11.4°C 95% Calm Calm -- 30.16 in1021.3 mb - 0.00 in0.0 mm 0.00 in0.0 mm
05:20 AM 54.0°F12.2°C 52.6°F11.4°C 95% Calm Calm -- 30.16 in1021.3 mb - 0.00 in0.0 mm 0.00 in0.0 mm
05:10 AM 54.1°F12.3°C 52.7°F11.5°C 95% Calm Calm -- 30.16 in1021.3 mb - 0.00 in0.0 mm 0.00 in0.0 mm
05:00 AM 54.2°F12.3°C 52.8°F11.6°C 95% Calm Calm -- 30.16 in1021.3 mb - 0.00 in0.0 mm 0.00 in0.0 mm
04:50 AM 54.2°F12.3°C 52.8°F11.6°C 95% Calm Calm -- 30.16 in1021.3 mb - 0.00 in0.0 mm 0.00 in0.0 mm
04:40 AM 54.3°F12.4°C 52.9°F11.6°C 95% Calm Calm -- 30.16 in1021.3 mb - 0.00 in0.0 mm 0.00 in0.0 mm
04:30 AM 54.4°F12.4°C 53.0°F11.7°C 95% Calm Calm -- 30.16 in1021.3 mb - 0.00 in0.0 mm 0.00 in0.0 mm
04:20 AM 54.5°F12.5°C 53.1°F11.7°C 95% Calm Calm -- 30.15 in1021.0 mb - 0.00 in0.0 mm 0.00 in0.0 mm
04:10 AM 54.6°F12.6°C 53.2°F11.8°C 95% Calm Calm -- 30.15 in1021.0 mb - 0.00 in0.0 mm 0.00 in0.0 mm
04:00 AM 54.7°F12.6°C 53.3°F11.8°C 95% Calm Calm -- 30.15 in1021.0 mb - 0.00 in0.0 mm 0.00 in0.0 mm
03:50 AM 54.8°F12.7°C 53.4°F11.9°C 95% Calm Calm -- 30.15 in1021.0 mb - 0.00 in0.0 mm 0.00 in0.0 mm
03:40 AM 54.9°F12.7°C 53.5°F11.9°C 95% Calm Calm -- 30.15 in1021.0 mb - 0.00 in0.0 mm 0.00 in0.0 mm
03:30 AM 55.1°F12.8°C 53.4°F11.9°C 94% Calm Calm -- 30.16 in1021.3 mb - 0.00 in0.0 mm 0.00 in0.0 mm
03:20 AM 55.2°F12.9°C 53.5°F11.9°C 94% Calm Calm -- 30.16 in1021.3 mb - 0.00 in0.0 mm 0.00 in0.0 mm
03:10 AM 55.4°F13.0°C 53.7°F12.1°C 94% Calm Calm -- 30.16 in1021.3 mb - 0.00 in0.0 mm 0.00 in0.0 mm
03:00 AM 55.5°F13.1°C 53.8°F12.1°C 94% Calm Calm -- 30.16 in1021.3 mb - 0.00 in0.0 mm 0.00 in0.0 mm
02:50 AM 55.7°F13.2°C 53.7°F12.1°C 93% Calm Calm -- 30.16 in1021.3 mb - 0.00 in0.0 mm 0.00 in0.0 mm
02:40 AM 55.9°F13.3°C 53.9°F12.2°C 93% Calm Calm -- 30.16 in1021.3 mb - 0.00 in0.0 mm 0.00 in0.0 mm
02:30 AM 56.1°F13.4°C 54.1°F12.3°C 93% Calm Calm -- 30.17 in1021.7 mb - 0.00 in0.0 mm 0.00 in0.0 mm
02:20 AM 56.3°F13.5°C 54.3°F12.4°C 93% Calm Calm -- 30.17 in1021.7 mb - 0.00 in0.0 mm 0.00 in0.0 mm
02:10 AM 56.5°F13.6°C 54.5°F12.5°C 93% Calm Calm -- 30.17 in1021.7 mb - 0.00 in0.0 mm 0.00 in0.0 mm
02:00 AM 56.7°F13.7°C 54.7°F12.6°C 93% Calm Calm -- 30.17 in1021.7 mb - 0.00 in0.0 mm 0.00 in0.0 mm
01:50 AM 56.9°F13.8°C 54.9°F12.7°C 93% Calm Calm -- 30.18 in1022.0 mb - 0.00 in0.0 mm 0.00 in0.0 mm
01:40 AM 57.1°F13.9°C 55.1°F12.8°C 93% Calm Calm -- 30.18 in1022.0 mb - 0.00 in0.0 mm 0.00 in0.0 mm
01:30 AM 57.4°F14.1°C 55.4°F13.0°C 93% Calm Calm -- 30.18 in1022.0 mb - 0.00 in0.0 mm 0.00 in0.0 mm
01:20 AM 57.6°F14.2°C 55.6°F13.1°C 93% Calm Calm -- 30.18 in1022.0 mb - 0.00 in0.0 mm 0.00 in0.0 mm
01:10 AM 57.9°F14.4°C 55.9°F13.3°C 93% Calm Calm -- 30.18 in1022.0 mb - 0.00 in0.0 mm 0.00 in0.0 mm
01:00 AM 58.2°F14.6°C 55.9°F13.3°C 92% Calm Calm -- 30.18 in1022.0 mb - 0.00 in0.0 mm 0.00 in0.0 mm
12:50 AM 58.4°F14.7°C 56.1°F13.4°C 92% Calm Calm -- 30.18 in1022.0 mb - 0.00 in0.0 mm 0.00 in0.0 mm
12:40 AM 58.7°F14.8°C 56.4°F13.6°C 92% Calm Calm -- 30.18 in1022.0 mb - 0.00 in0.0 mm 0.00 in0.0 mm
12:30 AM 58.9°F14.9°C 56.6°F13.7°C 92% Calm Calm -- 30.19 in1022.4 mb - 0.00 in0.0 mm 0.00 in0.0 mm
12:20 AM 59.2°F15.1°C 56.9°F13.8°C 92% Calm Calm -- 30.19 in1022.4 mb - 0.00 in0.0 mm 0.00 in0.0 mm
12:10 AM 59.5°F15.3°C 57.2°F14.0°C 92% Calm Calm -- 30.19 in1022.4 mb - 0.00 in0.0 mm 0.00 in0.0 mm
12:00 AM 59.7°F15.4°C 57.4°F14.1°C 92% Calm Calm -- 30.20 in1022.7 mb - 0.00 in0.0 mm 0.00 in0.0 mm